Aérodrome :
LOGIN :

S'inscrire | Disclaimer

   EN    FR    IT 

 










Légende :    VFR   VFR Marginal   IFR   IFR Intensif   IFR Très Intensif
Visi : 
Plafond : 
>= 8 km
>= 3000ft
5 à 8 km
1000 à 3000 ft
1500m à 5 km
500 à 1000 ft
800 à 1500m
200 à 500 ft
< 800m
< 200 ft
Symboles :   Orages  Brouillard  Fortes neiges  Fortes précipitations  Vent > 20 kt
SIGMETs :   Divers  Orages  Givrage  Turbulence  Onde Orograph.  Cendres Volcan.







- Altitude de l'aérodrome : 297 ft
- Code IATA : ODB


LEBA - Córdoba

DERNIER METAR :
  • 230100Z AUTO 24005KT 9999 NCD 27/18 Q1015

METARs EXPIRÉS :
  • 230030Z AUTO 23006KT 9999 NCD 28/18 Q1015
  • 230000Z AUTO 25006KT 210V290 9999 NCD 28/18 Q1015
  • 222330Z AUTO 24007KT 200V270 9999 NCD 29/18 Q1016
  • 222300Z AUTO 24009KT 200V260 9999 NCD 30/18 Q1016
  • 222230Z AUTO 24008KT 200V280 9999 NCD 32/15 Q1015

TAF TAF LEBA
Valide du 22 à 18h jusqu'au 23 à 03h UTC


221700Z 2218/2303 26010KT CAVOK
PROB30
TEMPO 2218/2222 26015G25KT
Pas de NOTAMs connus pour ce terrain.
2 SIGMETs publiés pour la FIR Madrid (LECM) :
 
Orages noyés dans la masse
LECM SIGMET 4 VALID 222205/230200 LEVA
LECM MADRID FIR/UIR EMBD TS FCST WI N4150 W006 - N4040 W00420 - N3930 W00350 - N3840 W00510 - N3930 W00640 - N4150 W006 TOP FL380 MOV N 10KT NC=
Orages noyés dans la masse
LECM SIGMET 1 VALID 230200/230600 LEVA
LECM MADRID FIR/UIR EMBD TS FCST WI N4130 W006 - N4150 W00320 - N39 W00310 - N39 W007 - N4130 W006 TOP FL380 MOV N 10KT NC=



MET'MAP, la Météo Aéronautique d'un coup d'oeil ! - Copyright ORBIFLY Décembre 2007 - Disclaimer

ORBIFLY MET'MAP TEAM :

Programmation & Développement : Alexandra Zaïnal
Conception & Développement : Baudouin d'Aumeries
Co-Programmation & Développement : Marc-Olivier Méhu
Soutien technique & logistique : Manuel Goepfert

Contact : metmap@orbifly.com




SOURCES & CREDITS :

   NOAA